sensor_id;sensor_type;location;lat;lon;timestamp;P1;durP1;ratioP1;P2;durP2;ratioP2
32826;SDS011;51059;42.058;27.986;2022-10-22T00:02:23;4.93;;;3.13;;
32826;SDS011;51059;42.058;27.986;2022-10-22T00:04:49;3.60;;;3.07;;
32826;SDS011;51059;42.058;27.986;2022-10-22T00:07:18;6.20;;;3.20;;
32826;SDS011;51059;42.058;27.986;2022-10-22T00:09:44;5.00;;;3.03;;
32826;SDS011;51059;42.058;27.986;2022-10-22T00:12:10;6.83;;;3.03;;
32826;SDS011;51059;42.058;27.986;2022-10-22T00:14:36;3.87;;;3.37;;
32826;SDS011;51059;42.058;27.986;2022-10-22T00:17:02;4.13;;;3.30;;
32826;SDS011;51059;42.058;27.986;2022-10-22T00:19:28;6.17;;;3.23;;
32826;SDS011;51059;42.058;27.986;2022-10-22T00:21:54;5.17;;;3.20;;
32826;SDS011;51059;42.058;27.986;2022-10-22T00:24:19;5.33;;;3.20;;
32826;SDS011;51059;42.058;27.986;2022-10-22T00:26:45;4.93;;;3.07;;
32826;SDS011;51059;42.058;27.986;2022-10-22T00:29:11;6.57;;;2.97;;
32826;SDS011;51059;42.058;27.986;2022-10-22T00:31:37;8.37;;;3.23;;
32826;SDS011;51059;42.058;27.986;2022-10-22T00:34:02;4.73;;;2.93;;
32826;SDS011;51059;42.058;27.986;2022-10-22T00:36:28;4.07;;;3.13;;
32826;SDS011;51059;42.058;27.986;2022-10-22T00:38:53;5.87;;;3.03;;
32826;SDS011;51059;42.058;27.986;2022-10-22T00:41:19;3.70;;;3.33;;
32826;SDS011;51059;42.058;27.986;2022-10-22T00:43:55;4.73;;;3.50;;
32826;SDS011;51059;42.058;27.986;2022-10-22T00:46:25;5.13;;;3.13;;
32826;SDS011;51059;42.058;27.986;2022-10-22T00:48:51;3.80;;;3.07;;
32826;SDS011;51059;42.058;27.986;2022-10-22T00:51:17;3.73;;;2.70;;
32826;SDS011;51059;42.058;27.986;2022-10-22T00:53:46;5.27;;;3.60;;
32826;SDS011;51059;42.058;27.986;2022-10-22T00:56:14;4.50;;;3.43;;
32826;SDS011;51059;42.058;27.986;2022-10-22T00:58:44;5.80;;;3.20;;
32826;SDS011;51059;42.058;27.986;2022-10-22T01:01:19;6.97;;;3.90;;
32826;SDS011;51059;42.058;27.986;2022-10-22T01:03:47;10.43;;;6.47;;
32826;SDS011;51059;42.058;27.986;2022-10-22T01:06:16;7.57;;;5.60;;
32826;SDS011;51059;42.058;27.986;2022-10-22T01:14:12;4.20;;;3.20;;
32826;SDS011;51059;42.058;27.986;2022-10-22T01:17:31;5.97;;;3.03;;
32826;SDS011;51059;42.058;27.986;2022-10-22T01:20:55;4.63;;;3.27;;
32826;SDS011;51059;42.058;27.986;2022-10-22T01:26:09;3.50;;;3.00;;
32826;SDS011;51059;42.058;27.986;2022-10-22T01:28:52;3.63;;;3.00;;
32826;SDS011;51059;42.058;27.986;2022-10-22T01:31:23;3.60;;;3.20;;
32826;SDS011;51059;42.058;27.986;2022-10-22T01:33:50;4.97;;;3.43;;
32826;SDS011;51059;42.058;27.986;2022-10-22T01:36:17;4.27;;;3.40;;
32826;SDS011;51059;42.058;27.986;2022-10-22T01:38:43;5.03;;;3.30;;
32826;SDS011;51059;42.058;27.986;2022-10-22T01:41:09;3.40;;;3.10;;
32826;SDS011;51059;42.058;27.986;2022-10-22T01:43:35;7.10;;;4.00;;
32826;SDS011;51059;42.058;27.986;2022-10-22T01:46:01;4.47;;;4.03;;
32826;SDS011;51059;42.058;27.986;2022-10-22T01:48:52;5.80;;;3.83;;
32826;SDS011;51059;42.058;27.986;2022-10-22T01:54:39;4.37;;;3.47;;
32826;SDS011;51059;42.058;27.986;2022-10-22T01:57:18;4.93;;;3.07;;
32826;SDS011;51059;42.058;27.986;2022-10-22T02:00:09;4.67;;;3.23;;
32826;SDS011;51059;42.058;27.986;2022-10-22T02:02:45;3.70;;;2.80;;
32826;SDS011;51059;42.058;27.986;2022-10-22T02:05:58;4.27;;;3.13;;
32826;SDS011;51059;42.058;27.986;2022-10-22T02:08:19;3.93;;;3.33;;
32826;SDS011;51059;42.058;27.986;2022-10-22T02:10:47;7.67;;;3.50;;
32826;SDS011;51059;42.058;27.986;2022-10-22T02:13:47;5.27;;;3.40;;
32826;SDS011;51059;42.058;27.986;2022-10-22T02:16:07;3.77;;;2.93;;
32826;SDS011;51059;42.058;27.986;2022-10-22T02:18:34;4.40;;;2.80;;
32826;SDS011;51059;42.058;27.986;2022-10-22T02:21:01;5.10;;;2.90;;
32826;SDS011;51059;42.058;27.986;2022-10-22T02:23:27;4.37;;;3.43;;
32826;SDS011;51059;42.058;27.986;2022-10-22T02:25:55;6.77;;;4.10;;
32826;SDS011;51059;42.058;27.986;2022-10-22T02:28:30;3.93;;;3.40;;
32826;SDS011;51059;42.058;27.986;2022-10-22T02:31:05;3.80;;;3.30;;
32826;SDS011;51059;42.058;27.986;2022-10-22T02:33:38;4.47;;;3.00;;
32826;SDS011;51059;42.058;27.986;2022-10-22T02:36:08;5.03;;;3.17;;
32826;SDS011;51059;42.058;27.986;2022-10-22T02:38:33;3.43;;;2.90;;
32826;SDS011;51059;42.058;27.986;2022-10-22T02:41:00;4.70;;;3.33;;
32826;SDS011;51059;42.058;27.986;2022-10-22T02:43:27;4.37;;;3.60;;
32826;SDS011;51059;42.058;27.986;2022-10-22T02:45:53;5.23;;;4.00;;
32826;SDS011;51059;42.058;27.986;2022-10-22T02:48:19;4.90;;;4.27;;
32826;SDS011;51059;42.058;27.986;2022-10-22T02:50:44;5.13;;;4.50;;
32826;SDS011;51059;42.058;27.986;2022-10-22T02:53:10;5.13;;;4.00;;
32826;SDS011;51059;42.058;27.986;2022-10-22T02:55:36;5.50;;;3.50;;
32826;SDS011;51059;42.058;27.986;2022-10-22T02:58:01;4.47;;;2.97;;
32826;SDS011;51059;42.058;27.986;2022-10-22T03:00:27;7.37;;;3.40;;
32826;SDS011;51059;42.058;27.986;2022-10-22T03:02:52;5.73;;;3.50;;
32826;SDS011;51059;42.058;27.986;2022-10-22T03:05:18;3.97;;;3.33;;
32826;SDS011;51059;42.058;27.986;2022-10-22T03:07:44;4.67;;;3.53;;
32826;SDS011;51059;42.058;27.986;2022-10-22T03:10:09;6.40;;;3.30;;
32826;SDS011;51059;42.058;27.986;2022-10-22T03:12:35;4.63;;;3.43;;
32826;SDS011;51059;42.058;27.986;2022-10-22T03:15:00;5.13;;;3.50;;
32826;SDS011;51059;42.058;27.986;2022-10-22T03:17:26;3.70;;;3.30;;
32826;SDS011;51059;42.058;27.986;2022-10-22T03:19:51;4.43;;;3.37;;
32826;SDS011;51059;42.058;27.986;2022-10-22T03:22:21;6.33;;;3.53;;
32826;SDS011;51059;42.058;27.986;2022-10-22T03:24:49;4.90;;;4.00;;
32826;SDS011;51059;42.058;27.986;2022-10-22T03:27:18;5.60;;;4.27;;
32826;SDS011;51059;42.058;27.986;2022-10-22T03:29:44;5.30;;;3.90;;
32826;SDS011;51059;42.058;27.986;2022-10-22T03:32:11;4.57;;;3.70;;
32826;SDS011;51059;42.058;27.986;2022-10-22T03:34:37;4.30;;;3.60;;
32826;SDS011;51059;42.058;27.986;2022-10-22T03:37:03;4.37;;;3.50;;
32826;SDS011;51059;42.058;27.986;2022-10-22T03:39:28;5.23;;;3.40;;
32826;SDS011;51059;42.058;27.986;2022-10-22T03:41:56;7.37;;;3.40;;
32826;SDS011;51059;42.058;27.986;2022-10-22T03:44:21;3.97;;;3.33;;
32826;SDS011;51059;42.058;27.986;2022-10-22T03:46:47;4.00;;;3.37;;
32826;SDS011;51059;42.058;27.986;2022-10-22T03:49:13;5.20;;;3.30;;
32826;SDS011;51059;42.058;27.986;2022-10-22T03:51:39;3.43;;;3.10;;
32826;SDS011;51059;42.058;27.986;2022-10-22T03:54:04;7.17;;;3.50;;
32826;SDS011;51059;42.058;27.986;2022-10-22T03:56:30;3.73;;;3.10;;
32826;SDS011;51059;42.058;27.986;2022-10-22T03:58:56;4.17;;;3.50;;
32826;SDS011;51059;42.058;27.986;2022-10-22T04:01:23;5.73;;;3.63;;
32826;SDS011;51059;42.058;27.986;2022-10-22T04:03:49;4.27;;;3.40;;
32826;SDS011;51059;42.058;27.986;2022-10-22T04:06:15;4.73;;;3.47;;
32826;SDS011;51059;42.058;27.986;2022-10-22T04:08:41;4.40;;;3.60;;
32826;SDS011;51059;42.058;27.986;2022-10-22T04:11:08;6.43;;;3.63;;
32826;SDS011;51059;42.058;27.986;2022-10-22T04:13:34;5.00;;;3.50;;
32826;SDS011;51059;42.058;27.986;2022-10-22T04:16:17;4.90;;;3.63;;
32826;SDS011;51059;42.058;27.986;2022-10-22T04:18:45;6.37;;;3.70;;
32826;SDS011;51059;42.058;27.986;2022-10-22T04:21:12;7.53;;;3.70;;
32826;SDS011;51059;42.058;27.986;2022-10-22T04:23:40;4.63;;;3.30;;
32826;SDS011;51059;42.058;27.986;2022-10-22T04:26:12;4.37;;;3.60;;
32826;SDS011;51059;42.058;27.986;2022-10-22T04:28:38;5.93;;;3.50;;
32826;SDS011;51059;42.058;27.986;2022-10-22T04:31:07;4.90;;;3.50;;
32826;SDS011;51059;42.058;27.986;2022-10-22T04:33:34;5.97;;;4.03;;
32826;SDS011;51059;42.058;27.986;2022-10-22T04:35:59;5.10;;;3.80;;
32826;SDS011;51059;42.058;27.986;2022-10-22T04:38:25;7.87;;;4.23;;
32826;SDS011;51059;42.058;27.986;2022-10-22T04:40:50;7.63;;;4.90;;
32826;SDS011;51059;42.058;27.986;2022-10-22T04:43:16;9.73;;;5.77;;
32826;SDS011;51059;42.058;27.986;2022-10-22T04:45:41;7.37;;;5.20;;
32826;SDS011;51059;42.058;27.986;2022-10-22T04:48:07;6.93;;;4.93;;
32826;SDS011;51059;42.058;27.986;2022-10-22T04:50:33;8.20;;;4.13;;
32826;SDS011;51059;42.058;27.986;2022-10-22T04:52:58;7.67;;;3.83;;
32826;SDS011;51059;42.058;27.986;2022-10-22T04:55:24;3.90;;;3.47;;
32826;SDS011;51059;42.058;27.986;2022-10-22T04:57:49;6.27;;;3.60;;
32826;SDS011;51059;42.058;27.986;2022-10-22T05:00:15;5.03;;;3.37;;
32826;SDS011;51059;42.058;27.986;2022-10-22T05:02:41;7.07;;;3.40;;
32826;SDS011;51059;42.058;27.986;2022-10-22T05:05:08;4.30;;;3.13;;
32826;SDS011;51059;42.058;27.986;2022-10-22T05:07:34;7.03;;;3.70;;
32826;SDS011;51059;42.058;27.986;2022-10-22T05:09:59;5.60;;;3.33;;
32826;SDS011;51059;42.058;27.986;2022-10-22T05:12:26;3.60;;;3.20;;
32826;SDS011;51059;42.058;27.986;2022-10-22T05:14:53;5.80;;;3.57;;
32826;SDS011;51059;42.058;27.986;2022-10-22T05:17:20;3.97;;;3.50;;
32826;SDS011;51059;42.058;27.986;2022-10-22T05:19:45;4.93;;;3.70;;
32826;SDS011;51059;42.058;27.986;2022-10-22T05:22:11;4.17;;;3.63;;
32826;SDS011;51059;42.058;27.986;2022-10-22T05:24:36;4.87;;;4.00;;
32826;SDS011;51059;42.058;27.986;2022-10-22T05:27:02;4.90;;;3.70;;
32826;SDS011;51059;42.058;27.986;2022-10-22T05:29:28;4.60;;;4.10;;
32826;SDS011;51059;42.058;27.986;2022-10-22T05:31:54;5.73;;;3.70;;
32826;SDS011;51059;42.058;27.986;2022-10-22T05:34:19;4.87;;;3.40;;
32826;SDS011;51059;42.058;27.986;2022-10-22T05:36:45;5.83;;;3.67;;
32826;SDS011;51059;42.058;27.986;2022-10-22T05:39:11;3.80;;;2.93;;
32826;SDS011;51059;42.058;27.986;2022-10-22T05:41:36;3.87;;;2.97;;
32826;SDS011;51059;42.058;27.986;2022-10-22T05:44:03;3.90;;;3.50;;
32826;SDS011;51059;42.058;27.986;2022-10-22T05:46:30;8.47;;;3.80;;
32826;SDS011;51059;42.058;27.986;2022-10-22T05:48:58;7.70;;;4.30;;
32826;SDS011;51059;42.058;27.986;2022-10-22T05:51:26;6.67;;;5.20;;
32826;SDS011;51059;42.058;27.986;2022-10-22T05:53:54;6.40;;;4.80;;
32826;SDS011;51059;42.058;27.986;2022-10-22T05:56:23;6.57;;;5.13;;
32826;SDS011;51059;42.058;27.986;2022-10-22T05:58:48;6.57;;;4.00;;
32826;SDS011;51059;42.058;27.986;2022-10-22T06:01:21;6.47;;;3.90;;
32826;SDS011;51059;42.058;27.986;2022-10-22T06:03:51;4.87;;;3.43;;
32826;SDS011;51059;42.058;27.986;2022-10-22T06:07:02;5.93;;;3.30;;
32826;SDS011;51059;42.058;27.986;2022-10-22T06:11:38;3.93;;;2.60;;
32826;SDS011;51059;42.058;27.986;2022-10-22T06:14:03;5.23;;;2.73;;
32826;SDS011;51059;42.058;27.986;2022-10-22T06:16:29;3.23;;;2.40;;
32826;SDS011;51059;42.058;27.986;2022-10-22T06:18:57;3.90;;;2.67;;
32826;SDS011;51059;42.058;27.986;2022-10-22T06:21:23;6.20;;;2.70;;
32826;SDS011;51059;42.058;27.986;2022-10-22T06:23:48;5.73;;;3.00;;
32826;SDS011;51059;42.058;27.986;2022-10-22T06:26:14;3.30;;;2.67;;
32826;SDS011;51059;42.058;27.986;2022-10-22T06:28:42;4.20;;;2.80;;
32826;SDS011;51059;42.058;27.986;2022-10-22T06:31:08;3.63;;;2.57;;
32826;SDS011;51059;42.058;27.986;2022-10-22T06:33:34;2.87;;;2.50;;
32826;SDS011;51059;42.058;27.986;2022-10-22T06:36:10;3.10;;;2.53;;
32826;SDS011;51059;42.058;27.986;2022-10-22T06:38:37;4.47;;;2.57;;
32826;SDS011;51059;42.058;27.986;2022-10-22T06:41:04;3.53;;;2.63;;
32826;SDS011;51059;42.058;27.986;2022-10-22T06:43:31;6.73;;;2.60;;
32826;SDS011;51059;42.058;27.986;2022-10-22T06:46:04;5.40;;;2.70;;
32826;SDS011;51059;42.058;27.986;2022-10-22T06:48:31;3.97;;;3.03;;
32826;SDS011;51059;42.058;27.986;2022-10-22T06:51:01;4.77;;;2.83;;
32826;SDS011;51059;42.058;27.986;2022-10-22T06:53:31;4.77;;;3.03;;
32826;SDS011;51059;42.058;27.986;2022-10-22T06:55:57;5.23;;;2.80;;
32826;SDS011;51059;42.058;27.986;2022-10-22T06:58:22;5.00;;;2.70;;
32826;SDS011;51059;42.058;27.986;2022-10-22T07:00:48;6.63;;;2.90;;
32826;SDS011;51059;42.058;27.986;2022-10-22T07:03:14;1.77;;;1.50;;
32826;SDS011;51059;42.058;27.986;2022-10-22T07:05:41;3.17;;;1.47;;
32826;SDS011;51059;42.058;27.986;2022-10-22T07:08:07;1.70;;;1.20;;
32826;SDS011;51059;42.058;27.986;2022-10-22T07:10:32;3.17;;;1.50;;
32826;SDS011;51059;42.058;27.986;2022-10-22T07:12:58;1.60;;;1.20;;
32826;SDS011;51059;42.058;27.986;2022-10-22T07:15:24;1.70;;;1.00;;
32826;SDS011;51059;42.058;27.986;2022-10-22T07:17:49;1.23;;;0.80;;
32826;SDS011;51059;42.058;27.986;2022-10-22T07:20:18;1.73;;;1.10;;
32826;SDS011;51059;42.058;27.986;2022-10-22T07:22:45;4.10;;;0.93;;
32826;SDS011;51059;42.058;27.986;2022-10-22T07:25:11;1.73;;;1.00;;
32826;SDS011;51059;42.058;27.986;2022-10-22T07:27:36;1.43;;;1.00;;
32826;SDS011;51059;42.058;27.986;2022-10-22T07:30:02;2.03;;;0.93;;
32826;SDS011;51059;42.058;27.986;2022-10-22T07:32:28;2.73;;;0.93;;
32826;SDS011;51059;42.058;27.986;2022-10-22T07:34:54;3.80;;;1.10;;
32826;SDS011;51059;42.058;27.986;2022-10-22T07:37:20;1.37;;;0.90;;
32826;SDS011;51059;42.058;27.986;2022-10-22T07:39:46;1.47;;;0.90;;
32826;SDS011;51059;42.058;27.986;2022-10-22T07:42:12;2.00;;;0.93;;
32826;SDS011;51059;42.058;27.986;2022-10-22T07:44:38;3.67;;;0.93;;
32826;SDS011;51059;42.058;27.986;2022-10-22T07:47:03;2.30;;;1.00;;
32826;SDS011;51059;42.058;27.986;2022-10-22T07:49:29;2.60;;;1.00;;
32826;SDS011;51059;42.058;27.986;2022-10-22T07:51:55;3.37;;;1.30;;
32826;SDS011;51059;42.058;27.986;2022-10-22T07:54:21;2.37;;;1.00;;
32826;SDS011;51059;42.058;27.986;2022-10-22T07:56:47;2.43;;;1.00;;
32826;SDS011;51059;42.058;27.986;2022-10-22T07:59:12;1.50;;;0.90;;
32826;SDS011;51059;42.058;27.986;2022-10-22T08:01:38;3.50;;;1.10;;
32826;SDS011;51059;42.058;27.986;2022-10-22T08:04:04;2.97;;;1.17;;
32826;SDS011;51059;42.058;27.986;2022-10-22T08:06:32;2.33;;;1.10;;
32826;SDS011;51059;42.058;27.986;2022-10-22T08:08:58;3.83;;;1.47;;
32826;SDS011;51059;42.058;27.986;2022-10-22T08:11:24;2.37;;;0.80;;
32826;SDS011;51059;42.058;27.986;2022-10-22T08:13:51;3.10;;;1.10;;
32826;SDS011;51059;42.058;27.986;2022-10-22T08:16:16;1.20;;;0.93;;
32826;SDS011;51059;42.058;27.986;2022-10-22T08:18:42;4.07;;;1.10;;
32826;SDS011;51059;42.058;27.986;2022-10-22T08:21:08;3.37;;;1.10;;
32826;SDS011;51059;42.058;27.986;2022-10-22T08:23:34;2.20;;;0.90;;
32826;SDS011;51059;42.058;27.986;2022-10-22T08:26:00;3.40;;;1.20;;
32826;SDS011;51059;42.058;27.986;2022-10-22T08:28:27;3.77;;;1.10;;
32826;SDS011;51059;42.058;27.986;2022-10-22T08:30:53;3.57;;;1.07;;
32826;SDS011;51059;42.058;27.986;2022-10-22T08:33:19;2.70;;;1.20;;
32826;SDS011;51059;42.058;27.986;2022-10-22T08:35:48;2.00;;;1.23;;
32826;SDS011;51059;42.058;27.986;2022-10-22T08:38:15;1.60;;;1.10;;
32826;SDS011;51059;42.058;27.986;2022-10-22T08:40:41;3.30;;;1.30;;
32826;SDS011;51059;42.058;27.986;2022-10-22T08:43:12;1.20;;;1.10;;
32826;SDS011;51059;42.058;27.986;2022-10-22T08:46:13;1.90;;;1.33;;
32826;SDS011;51059;42.058;27.986;2022-10-22T08:48:45;4.37;;;1.30;;
32826;SDS011;51059;42.058;27.986;2022-10-22T08:51:35;1.93;;;1.10;;
32826;SDS011;51059;42.058;27.986;2022-10-22T08:54:11;2.90;;;1.50;;
32826;SDS011;51059;42.058;27.986;2022-10-22T09:03:23;2.93;;;1.20;;
32826;SDS011;51059;42.058;27.986;2022-10-22T09:08:30;2.23;;;1.50;;
32826;SDS011;51059;42.058;27.986;2022-10-22T09:11:00;2.07;;;1.40;;
32826;SDS011;51059;42.058;27.986;2022-10-22T09:13:28;5.80;;;1.63;;
32826;SDS011;51059;42.058;27.986;2022-10-22T09:15:55;4.73;;;1.50;;
32826;SDS011;51059;42.058;27.986;2022-10-22T09:18:34;3.60;;;1.57;;
32826;SDS011;51059;42.058;27.986;2022-10-22T09:21:09;2.73;;;1.30;;
32826;SDS011;51059;42.058;27.986;2022-10-22T09:23:50;2.80;;;1.20;;
32826;SDS011;51059;42.058;27.986;2022-10-22T09:26:20;4.53;;;0.90;;
32826;SDS011;51059;42.058;27.986;2022-10-22T09:28:48;3.87;;;1.07;;
32826;SDS011;51059;42.058;27.986;2022-10-22T09:31:15;2.40;;;1.20;;
32826;SDS011;51059;42.058;27.986;2022-10-22T09:33:42;7.20;;;1.40;;
32826;SDS011;51059;42.058;27.986;2022-10-22T09:36:12;1.50;;;1.00;;
32826;SDS011;51059;42.058;27.986;2022-10-22T09:38:59;4.40;;;1.33;;
32826;SDS011;51059;42.058;27.986;2022-10-22T09:41:27;2.97;;;1.20;;
32826;SDS011;51059;42.058;27.986;2022-10-22T09:43:56;3.87;;;1.30;;
32826;SDS011;51059;42.058;27.986;2022-10-22T09:46:24;2.93;;;1.07;;
32826;SDS011;51059;42.058;27.986;2022-10-22T09:51:50;3.60;;;1.27;;
32826;SDS011;51059;42.058;27.986;2022-10-22T09:54:22;4.03;;;1.30;;
32826;SDS011;51059;42.058;27.986;2022-10-22T09:56:53;2.67;;;1.30;;
32826;SDS011;51059;42.058;27.986;2022-10-22T09:59:30;1.43;;;1.13;;
32826;SDS011;51059;42.058;27.986;2022-10-22T10:04:39;3.33;;;1.30;;
32826;SDS011;51059;42.058;27.986;2022-10-22T10:07:13;2.77;;;1.30;;
32826;SDS011;51059;42.058;27.986;2022-10-22T10:09:44;3.30;;;1.30;;
32826;SDS011;51059;42.058;27.986;2022-10-22T10:12:16;4.50;;;1.27;;
32826;SDS011;51059;42.058;27.986;2022-10-22T10:25:40;4.20;;;1.30;;
32826;SDS011;51059;42.058;27.986;2022-10-22T10:29:00;1.97;;;1.10;;
32826;SDS011;51059;42.058;27.986;2022-10-22T10:41:55;2.73;;;1.67;;
32826;SDS011;51059;42.058;27.986;2022-10-22T10:47:31;3.07;;;1.43;;
32826;SDS011;51059;42.058;27.986;2022-10-22T11:01:09;5.50;;;1.67;;
32826;SDS011;51059;42.058;27.986;2022-10-22T11:04:04;5.37;;;1.70;;
32826;SDS011;51059;42.058;27.986;2022-10-22T11:06:44;4.27;;;1.80;;
32826;SDS011;51059;42.058;27.986;2022-10-22T11:09:20;3.90;;;1.70;;
32826;SDS011;51059;42.058;27.986;2022-10-22T11:11:59;4.97;;;2.00;;
32826;SDS011;51059;42.058;27.986;2022-10-22T11:14:29;7.33;;;2.07;;
32826;SDS011;51059;42.058;27.986;2022-10-22T11:17:02;4.67;;;1.90;;
32826;SDS011;51059;42.058;27.986;2022-10-22T11:19:37;3.03;;;1.53;;
32826;SDS011;51059;42.058;27.986;2022-10-22T11:22:27;4.57;;;1.63;;
32826;SDS011;51059;42.058;27.986;2022-10-22T11:25:17;2.63;;;1.43;;
32826;SDS011;51059;42.058;27.986;2022-10-22T11:27:52;2.17;;;1.60;;
32826;SDS011;51059;42.058;27.986;2022-10-22T11:30:22;3.23;;;1.60;;
32826;SDS011;51059;42.058;27.986;2022-10-22T11:32:50;4.53;;;2.20;;
32826;SDS011;51059;42.058;27.986;2022-10-22T11:35:21;5.60;;;1.97;;
32826;SDS011;51059;42.058;27.986;2022-10-22T11:37:49;2.33;;;1.63;;
32826;SDS011;51059;42.058;27.986;2022-10-22T11:42:51;4.23;;;1.63;;
32826;SDS011;51059;42.058;27.986;2022-10-22T11:45:26;4.70;;;1.87;;
32826;SDS011;51059;42.058;27.986;2022-10-22T11:53:16;8.20;;;2.17;;
32826;SDS011;51059;42.058;27.986;2022-10-22T11:55:46;4.87;;;1.93;;
32826;SDS011;51059;42.058;27.986;2022-10-22T12:03:47;6.07;;;1.87;;
32826;SDS011;51059;42.058;27.986;2022-10-22T12:06:22;4.17;;;1.90;;
32826;SDS011;51059;42.058;27.986;2022-10-22T12:16:42;3.93;;;1.80;;
32826;SDS011;51059;42.058;27.986;2022-10-22T12:19:33;4.13;;;1.70;;
32826;SDS011;51059;42.058;27.986;2022-10-22T12:22:10;3.60;;;1.90;;
32826;SDS011;51059;42.058;27.986;2022-10-22T12:24:48;3.10;;;1.67;;
32826;SDS011;51059;42.058;27.986;2022-10-22T12:27:25;2.90;;;1.97;;
32826;SDS011;51059;42.058;27.986;2022-10-22T12:29:55;8.27;;;2.33;;
32826;SDS011;51059;42.058;27.986;2022-10-22T12:32:21;3.73;;;2.07;;
32826;SDS011;51059;42.058;27.986;2022-10-22T12:34:48;7.90;;;2.97;;
32826;SDS011;51059;42.058;27.986;2022-10-22T12:37:16;2.30;;;1.77;;
32826;SDS011;51059;42.058;27.986;2022-10-22T12:39:43;3.63;;;2.23;;
32826;SDS011;51059;42.058;27.986;2022-10-22T12:42:18;9.57;;;2.77;;
32826;SDS011;51059;42.058;27.986;2022-10-22T12:44:45;4.67;;;2.17;;
32826;SDS011;51059;42.058;27.986;2022-10-22T12:47:15;7.70;;;2.40;;
32826;SDS011;51059;42.058;27.986;2022-10-22T12:49:43;8.53;;;2.67;;
32826;SDS011;51059;42.058;27.986;2022-10-22T12:52:18;9.50;;;2.90;;
32826;SDS011;51059;42.058;27.986;2022-10-22T12:54:45;5.77;;;2.30;;
32826;SDS011;51059;42.058;27.986;2022-10-22T12:57:13;5.27;;;2.40;;
32826;SDS011;51059;42.058;27.986;2022-10-22T12:59:41;4.73;;;2.60;;
32826;SDS011;51059;42.058;27.986;2022-10-22T13:02:22;3.33;;;2.10;;
32826;SDS011;51059;42.058;27.986;2022-10-22T13:08:00;6.33;;;2.40;;
32826;SDS011;51059;42.058;27.986;2022-10-22T13:10:32;3.17;;;2.23;;
32826;SDS011;51059;42.058;27.986;2022-10-22T13:12:59;3.37;;;2.50;;
32826;SDS011;51059;42.058;27.986;2022-10-22T13:18:03;5.60;;;2.63;;
32826;SDS011;51059;42.058;27.986;2022-10-22T13:20:31;5.50;;;2.57;;
32826;SDS011;51059;42.058;27.986;2022-10-22T13:22:58;7.60;;;2.57;;
32826;SDS011;51059;42.058;27.986;2022-10-22T13:25:28;5.10;;;2.70;;
32826;SDS011;51059;42.058;27.986;2022-10-22T13:28:02;4.43;;;2.27;;
32826;SDS011;51059;42.058;27.986;2022-10-22T13:30:29;5.07;;;2.33;;
32826;SDS011;51059;42.058;27.986;2022-10-22T13:32:58;6.87;;;2.60;;
32826;SDS011;51059;42.058;27.986;2022-10-22T13:35:26;4.93;;;2.57;;
32826;SDS011;51059;42.058;27.986;2022-10-22T13:37:53;4.40;;;2.50;;
32826;SDS011;51059;42.058;27.986;2022-10-22T13:40:19;7.43;;;2.60;;
32826;SDS011;51059;42.058;27.986;2022-10-22T13:42:45;5.57;;;2.77;;
32826;SDS011;51059;42.058;27.986;2022-10-22T13:45:11;3.50;;;2.50;;
32826;SDS011;51059;42.058;27.986;2022-10-22T13:47:37;7.40;;;2.43;;
32826;SDS011;51059;42.058;27.986;2022-10-22T13:50:06;6.93;;;2.70;;
32826;SDS011;51059;42.058;27.986;2022-10-22T13:52:42;8.03;;;2.77;;
32826;SDS011;51059;42.058;27.986;2022-10-22T13:55:15;5.33;;;2.90;;
32826;SDS011;51059;42.058;27.986;2022-10-22T13:57:41;8.53;;;3.07;;
32826;SDS011;51059;42.058;27.986;2022-10-22T14:00:10;4.93;;;2.70;;
32826;SDS011;51059;42.058;27.986;2022-10-22T14:02:40;3.57;;;2.40;;
32826;SDS011;51059;42.058;27.986;2022-10-22T14:05:05;6.47;;;2.70;;
32826;SDS011;51059;42.058;27.986;2022-10-22T14:07:33;4.73;;;2.90;;
32826;SDS011;51059;42.058;27.986;2022-10-22T14:10:00;6.63;;;3.10;;
32826;SDS011;51059;42.058;27.986;2022-10-22T14:12:25;7.47;;;2.87;;
32826;SDS011;51059;42.058;27.986;2022-10-22T14:14:52;4.53;;;2.40;;
32826;SDS011;51059;42.058;27.986;2022-10-22T14:17:18;7.60;;;3.00;;
32826;SDS011;51059;42.058;27.986;2022-10-22T14:19:44;6.23;;;2.70;;
32826;SDS011;51059;42.058;27.986;2022-10-22T14:22:12;7.37;;;3.30;;
32826;SDS011;51059;42.058;27.986;2022-10-22T14:24:41;7.43;;;2.83;;
32826;SDS011;51059;42.058;27.986;2022-10-22T14:27:09;5.37;;;2.63;;
32826;SDS011;51059;42.058;27.986;2022-10-22T14:29:36;8.40;;;3.10;;
32826;SDS011;51059;42.058;27.986;2022-10-22T14:32:02;4.73;;;2.90;;
32826;SDS011;51059;42.058;27.986;2022-10-22T14:34:27;7.33;;;2.90;;
32826;SDS011;51059;42.058;27.986;2022-10-22T14:36:53;6.83;;;2.90;;
32826;SDS011;51059;42.058;27.986;2022-10-22T14:39:18;7.30;;;2.80;;
32826;SDS011;51059;42.058;27.986;2022-10-22T14:41:45;10.70;;;2.90;;
32826;SDS011;51059;42.058;27.986;2022-10-22T14:44:11;9.57;;;3.07;;
32826;SDS011;51059;42.058;27.986;2022-10-22T14:46:38;6.27;;;3.10;;
32826;SDS011;51059;42.058;27.986;2022-10-22T14:49:06;5.93;;;2.77;;
32826;SDS011;51059;42.058;27.986;2022-10-22T14:51:32;5.83;;;3.10;;
32826;SDS011;51059;42.058;27.986;2022-10-22T14:53:57;6.10;;;3.57;;
32826;SDS011;51059;42.058;27.986;2022-10-22T14:56:23;9.50;;;3.40;;
32826;SDS011;51059;42.058;27.986;2022-10-22T14:58:49;5.13;;;3.20;;
32826;SDS011;51059;42.058;27.986;2022-10-22T15:01:15;7.90;;;4.30;;
32826;SDS011;51059;42.058;27.986;2022-10-22T15:03:41;7.30;;;4.20;;
32826;SDS011;51059;42.058;27.986;2022-10-22T15:06:06;8.47;;;3.40;;
32826;SDS011;51059;42.058;27.986;2022-10-22T15:08:32;6.93;;;3.23;;
32826;SDS011;51059;42.058;27.986;2022-10-22T15:10:59;5.27;;;3.47;;
32826;SDS011;51059;42.058;27.986;2022-10-22T15:13:29;7.47;;;3.43;;
32826;SDS011;51059;42.058;27.986;2022-10-22T15:15:56;10.07;;;3.80;;
32826;SDS011;51059;42.058;27.986;2022-10-22T15:18:22;4.30;;;2.87;;
32826;SDS011;51059;42.058;27.986;2022-10-22T15:20:55;5.17;;;3.03;;
32826;SDS011;51059;42.058;27.986;2022-10-22T15:23:21;5.93;;;3.90;;
32826;SDS011;51059;42.058;27.986;2022-10-22T15:25:46;5.63;;;3.43;;
32826;SDS011;51059;42.058;27.986;2022-10-22T15:28:12;5.73;;;3.10;;
32826;SDS011;51059;42.058;27.986;2022-10-22T15:30:37;6.30;;;3.17;;
32826;SDS011;51059;42.058;27.986;2022-10-22T15:33:03;7.20;;;3.27;;
32826;SDS011;51059;42.058;27.986;2022-10-22T15:35:29;8.63;;;3.43;;
32826;SDS011;51059;42.058;27.986;2022-10-22T15:37:54;9.67;;;3.40;;
32826;SDS011;51059;42.058;27.986;2022-10-22T15:40:20;5.27;;;3.30;;
32826;SDS011;51059;42.058;27.986;2022-10-22T15:42:45;6.40;;;3.30;;
32826;SDS011;51059;42.058;27.986;2022-10-22T15:45:11;8.13;;;3.40;;
32826;SDS011;51059;42.058;27.986;2022-10-22T15:47:37;5.83;;;3.50;;
32826;SDS011;51059;42.058;27.986;2022-10-22T15:50:02;6.43;;;3.40;;
32826;SDS011;51059;42.058;27.986;2022-10-22T15:52:29;6.83;;;3.70;;
32826;SDS011;51059;42.058;27.986;2022-10-22T15:54:55;6.13;;;3.30;;
32826;SDS011;51059;42.058;27.986;2022-10-22T15:57:21;5.97;;;3.23;;
32826;SDS011;51059;42.058;27.986;2022-10-22T15:59:46;8.17;;;3.10;;
32826;SDS011;51059;42.058;27.986;2022-10-22T16:02:14;8.20;;;3.60;;
32826;SDS011;51059;42.058;27.986;2022-10-22T16:04:40;9.93;;;3.60;;
32826;SDS011;51059;42.058;27.986;2022-10-22T16:07:05;7.13;;;3.20;;
32826;SDS011;51059;42.058;27.986;2022-10-22T16:09:31;7.47;;;3.50;;
32826;SDS011;51059;42.058;27.986;2022-10-22T16:11:57;9.33;;;3.53;;
32826;SDS011;51059;42.058;27.986;2022-10-22T16:14:22;6.73;;;3.03;;
32826;SDS011;51059;42.058;27.986;2022-10-22T16:16:49;8.37;;;3.20;;